PWSweather.com
Personal Weather Stations
Station Observations
719732
Ponferrada, PonferradaES 24411

PonferradaPonferradaES 24411

Lat: 42.5728, Lon: -6.6425

Elevation: 1676

Station Type: PCE-FWS 20 con garita Ambient Weather SRS100LX

www.meteo.spyfly.es

High Low Average
Temperature 86.5°F30.3°C 58.1°F14.5°C 68.9°F20.5°C
Dew Point 65.5°F18.6°C 53.9°F12.2°C 60.3°F15.7°C
Winds 12.1 mph 19.5 kmh Calm Calm 3.0 mph SW4.8 kmh SW
Wind Gusts 24.4 mph39.3 kmh 0.7 mph1.1 kmh 7.0 mph11.3 kmh
Humidity 99% 45% 76%
Pressure 30.04 in1017.3 mb 29.84 in1010.5 mb -
Precipitation 0.00 in0.0 mm - -
Hour Temp Dew Point Humidity Winds Wind Gusts Pressure Precip Precip Rate Daily Precip Total
12:00 AM 67.3°F19.6°C 61.3°F16.3°C 81% 2.2 mph SW3.5 kmh SW 4.5 mph7.2 kmh 29.93 in1013.5 mb 0.00 in0.0 mm 0.00 in0.0 mm 0.00 in0.0 mm
12:05 AM 67.3°F19.6°C 61.3°F16.3°C 81% 0.7 mph SW1.1 kmh SW 4.5 mph7.2 kmh 29.93 in1013.5 mb 0.00 in0.0 mm 0.00 in0.0 mm 0.00 in0.0 mm
12:10 AM 67.3°F19.6°C 61.3°F16.3°C 81% 3.8 mph SSW6.1 kmh SSW 4.5 mph7.2 kmh 29.93 in1013.5 mb 0.00 in0.0 mm 0.00 in0.0 mm 0.00 in0.0 mm
12:15 AM 67.1°F19.5°C 61.1°F16.2°C 81% 2.2 mph S3.5 kmh S 4.5 mph7.2 kmh 29.93 in1013.5 mb 0.00 in0.0 mm 0.00 in0.0 mm 0.00 in0.0 mm
12:20 AM 67.1°F19.5°C 61.4°F16.3°C 82% 2.2 mph S3.5 kmh S 6.0 mph9.7 kmh 29.93 in1013.5 mb 0.00 in0.0 mm 0.00 in0.0 mm 0.00 in0.0 mm
12:25 AM 66.9°F19.4°C 61.3°F16.3°C 82% 2.2 mph S3.5 kmh S 6.0 mph9.7 kmh 29.93 in1013.5 mb 0.00 in0.0 mm 0.00 in0.0 mm 0.00 in0.0 mm
12:30 AM 66.7°F19.3°C 61.1°F16.2°C 82% 3.8 mph S6.1 kmh S 5.4 mph8.7 kmh 29.94 in1013.9 mb 0.00 in0.0 mm 0.00 in0.0 mm 0.00 in0.0 mm
12:35 AM 66.7°F19.3°C 61.4°F16.3°C 83% 3.8 mph S6.1 kmh S 5.4 mph8.7 kmh 29.94 in1013.9 mb 0.00 in0.0 mm 0.00 in0.0 mm 0.00 in0.0 mm
12:40 AM 66.6°F19.2°C 61.3°F16.3°C 83% 3.1 mph S5.0 kmh S 5.4 mph8.7 kmh 29.94 in1013.9 mb 0.00 in0.0 mm 0.00 in0.0 mm 0.00 in0.0 mm
12:45 AM 66.4°F19.1°C 61.1°F16.2°C 83% 2.2 mph SSW3.5 kmh SSW 5.4 mph8.7 kmh 29.93 in1013.5 mb 0.00 in0.0 mm 0.00 in0.0 mm 0.00 in0.0 mm
12:50 AM 66.4°F19.1°C 61.4°F16.3°C 84% 1.6 mph SW2.6 kmh SW 5.4 mph8.7 kmh 29.94 in1013.9 mb 0.00 in0.0 mm 0.00 in0.0 mm 0.00 in0.0 mm
12:55 AM 66.2°F19.0°C 61.2°F16.2°C 84% 2.2 mph SW3.5 kmh SW 3.8 mph6.1 kmh 29.93 in1013.5 mb 0.00 in0.0 mm 0.00 in0.0 mm 0.00 in0.0 mm
01:00 AM 65.8°F18.8°C 61.2°F16.2°C 85% 2.2 mph S3.5 kmh S 3.8 mph6.1 kmh 29.94 in1013.9 mb 0.00 in0.0 mm 0.00 in0.0 mm 0.00 in0.0 mm
01:05 AM 65.8°F18.8°C 61.2°F16.2°C 85% 2.2 mph SSE3.5 kmh SSE 3.8 mph6.1 kmh 29.94 in1013.9 mb 0.00 in0.0 mm 0.00 in0.0 mm 0.00 in0.0 mm
01:10 AM 65.5°F18.6°C 60.9°F16.1°C 85% 2.2 mph S3.5 kmh S 3.8 mph6.1 kmh 29.94 in1013.9 mb 0.00 in0.0 mm 0.00 in0.0 mm 0.00 in0.0 mm
01:15 AM 65.3°F18.5°C 60.7°F15.9°C 85% 2.2 mph W3.5 kmh W 5.4 mph8.7 kmh 29.93 in1013.5 mb 0.00 in0.0 mm 0.00 in0.0 mm 0.00 in0.0 mm
01:20 AM 65.3°F18.5°C 61.0°F16.1°C 86% 2.2 mph SW3.5 kmh SW 5.4 mph8.7 kmh 29.94 in1013.9 mb 0.00 in0.0 mm 0.00 in0.0 mm 0.00 in0.0 mm
01:25 AM 65.1°F18.4°C 60.8°F16.0°C 86% 1.6 mph S2.6 kmh S 3.8 mph6.1 kmh 29.94 in1013.9 mb 0.00 in0.0 mm 0.00 in0.0 mm 0.00 in0.0 mm
01:30 AM 64.9°F18.3°C 60.7°F15.9°C 86% 3.8 mph S6.1 kmh S 5.4 mph8.7 kmh 29.94 in1013.9 mb 0.00 in0.0 mm 0.00 in0.0 mm 0.00 in0.0 mm
01:35 AM 64.9°F18.3°C 60.7°F15.9°C 86% 1.6 mph S2.6 kmh S 5.4 mph8.7 kmh 29.94 in1013.9 mb 0.00 in0.0 mm 0.00 in0.0 mm 0.00 in0.0 mm
01:40 AM 64.8°F18.2°C 60.5°F15.8°C 86% 1.6 mph S2.6 kmh S 5.4 mph8.7 kmh 29.94 in1013.9 mb 0.00 in0.0 mm 0.00 in0.0 mm 0.00 in0.0 mm
01:45 AM 64.6°F18.1°C 60.6°F15.9°C 87% 2.2 mph S3.5 kmh S 3.8 mph6.1 kmh 29.94 in1013.9 mb 0.00 in0.0 mm 0.00 in0.0 mm 0.00 in0.0 mm
01:50 AM 64.6°F18.1°C 60.6°F15.9°C 87% 0.7 mph S1.1 kmh S 3.8 mph6.1 kmh 29.94 in1013.9 mb 0.00 in0.0 mm 0.00 in0.0 mm 0.00 in0.0 mm
01:55 AM 64.4°F18.0°C 60.5°F15.8°C 87% 2.2 mph S3.5 kmh S 3.1 mph5.0 kmh 29.94 in1013.9 mb 0.00 in0.0 mm 0.00 in0.0 mm 0.00 in0.0 mm
02:00 AM 64.2°F17.9°C 60.0°F15.6°C 86% 2.2 mph S3.5 kmh S 3.1 mph5.0 kmh 29.94 in1013.9 mb 0.00 in0.0 mm 0.00 in0.0 mm 0.00 in0.0 mm
02:05 AM 64.2°F17.9°C 60.0°F15.6°C 86% 1.6 mph SSW2.6 kmh SSW 3.8 mph6.1 kmh 29.94 in1013.9 mb 0.00 in0.0 mm 0.00 in0.0 mm 0.00 in0.0 mm
02:10 AM 64.0°F17.8°C 59.8°F15.4°C 86% 0.7 mph SW1.1 kmh SW 3.8 mph6.1 kmh 29.94 in1013.9 mb 0.00 in0.0 mm 0.00 in0.0 mm 0.00 in0.0 mm
02:15 AM 64.0°F17.8°C 60.1°F15.6°C 87% 0.7 mph WSW1.1 kmh WSW 2.2 mph3.5 kmh 29.93 in1013.5 mb 0.00 in0.0 mm 0.00 in0.0 mm 0.00 in0.0 mm
02:20 AM 63.9°F17.7°C 59.9°F15.5°C 87% 0.7 mph WSW1.1 kmh WSW 3.1 mph5.0 kmh 29.93 in1013.5 mb 0.00 in0.0 mm 0.00 in0.0 mm 0.00 in0.0 mm
02:25 AM 63.7°F17.6°C 59.8°F15.4°C 87% 0.7 mph SSW1.1 kmh SSW 3.1 mph5.0 kmh 29.93 in1013.5 mb 0.00 in0.0 mm 0.00 in0.0 mm 0.00 in0.0 mm
02:30 AM 63.5°F17.5°C 59.6°F15.3°C 87% 2.2 mph SW3.5 kmh SW 3.8 mph6.1 kmh 29.93 in1013.5 mb 0.00 in0.0 mm 0.00 in0.0 mm 0.00 in0.0 mm
02:35 AM 63.5°F17.5°C 59.6°F15.3°C 87% 0.7 mph SW1.1 kmh SW 3.8 mph6.1 kmh 29.93 in1013.5 mb 0.00 in0.0 mm 0.00 in0.0 mm 0.00 in0.0 mm
02:40 AM 63.3°F17.4°C 59.4°F15.2°C 87% 0.7 mph SW1.1 kmh SW 3.8 mph6.1 kmh 29.94 in1013.9 mb 0.00 in0.0 mm 0.00 in0.0 mm 0.00 in0.0 mm
02:50 AM 63.0°F17.2°C 59.4°F15.2°C 88% 0.7 mph W1.1 kmh W 2.2 mph3.5 kmh 29.93 in1013.5 mb 0.00 in0.0 mm 0.00 in0.0 mm 0.00 in0.0 mm
02:55 AM 62.8°F17.1°C 59.2°F15.1°C 88% 0.7 mph WSW1.1 kmh WSW 2.2 mph3.5 kmh 29.93 in1013.5 mb 0.00 in0.0 mm 0.00 in0.0 mm 0.00 in0.0 mm
03:00 AM 62.4°F16.9°C 59.5°F15.3°C 90% Calm Calm 1.6 mph2.6 kmh 29.93 in1013.5 mb 0.00 in0.0 mm 0.00 in0.0 mm 0.00 in0.0 mm
03:05 AM 62.4°F16.9°C 59.5°F15.3°C 90% Calm Calm 1.6 mph2.6 kmh 29.93 in1013.5 mb 0.00 in0.0 mm 0.00 in0.0 mm 0.00 in0.0 mm
03:10 AM 62.2°F16.8°C 59.3°F15.2°C 90% Calm Calm 3.1 mph5.0 kmh 29.93 in1013.5 mb 0.00 in0.0 mm 0.00 in0.0 mm 0.00 in0.0 mm
03:15 AM 62.1°F16.7°C 59.4°F15.2°C 91% 1.6 mph WSW2.6 kmh WSW 3.1 mph5.0 kmh 29.92 in1013.2 mb 0.00 in0.0 mm 0.00 in0.0 mm 0.00 in0.0 mm
03:20 AM 62.1°F16.7°C 59.7°F15.4°C 92% 1.6 mph SW2.6 kmh SW 3.1 mph5.0 kmh 29.93 in1013.5 mb 0.00 in0.0 mm 0.00 in0.0 mm 0.00 in0.0 mm
03:25 AM 62.1°F16.7°C 59.7°F15.4°C 92% 3.1 mph SSW5.0 kmh SSW 4.5 mph7.2 kmh 29.93 in1013.5 mb 0.00 in0.0 mm 0.00 in0.0 mm 0.00 in0.0 mm
03:30 AM 62.1°F16.7°C 59.7°F15.4°C 92% 2.2 mph S3.5 kmh S 4.5 mph7.2 kmh 29.93 in1013.5 mb 0.00 in0.0 mm 0.00 in0.0 mm 0.00 in0.0 mm
03:35 AM 62.1°F16.7°C 59.7°F15.4°C 92% 1.6 mph S2.6 kmh S 4.5 mph7.2 kmh 29.93 in1013.5 mb 0.00 in0.0 mm 0.00 in0.0 mm 0.00 in0.0 mm
03:40 AM 61.9°F16.6°C 59.9°F15.5°C 93% Calm Calm 4.5 mph7.2 kmh 29.92 in1013.2 mb 0.00 in0.0 mm 0.00 in0.0 mm 0.00 in0.0 mm
03:45 AM 61.7°F16.5°C 59.4°F15.2°C 92% 0.7 mph WNW1.1 kmh WNW 3.1 mph5.0 kmh 29.92 in1013.2 mb 0.00 in0.0 mm 0.00 in0.0 mm 0.00 in0.0 mm
03:50 AM 61.2°F16.2°C 58.8°F14.9°C 92% Calm Calm 2.2 mph3.5 kmh 29.93 in1013.5 mb 0.00 in0.0 mm 0.00 in0.0 mm 0.00 in0.0 mm
03:55 AM 61.0°F16.1°C 58.7°F14.8°C 92% 1.6 mph SW2.6 kmh SW 2.2 mph3.5 kmh 29.93 in1013.5 mb 0.00 in0.0 mm 0.00 in0.0 mm 0.00 in0.0 mm
04:00 AM 61.0°F16.1°C 59.0°F15.0°C 93% 0.7 mph S1.1 kmh S 3.8 mph6.1 kmh 29.93 in1013.5 mb 0.00 in0.0 mm 0.00 in0.0 mm 0.00 in0.0 mm
04:05 AM 61.2°F16.2°C 59.4°F15.2°C 94% 2.2 mph S3.5 kmh S 3.8 mph6.1 kmh 29.93 in1013.5 mb 0.00 in0.0 mm 0.00 in0.0 mm 0.00 in0.0 mm
04:10 AM 61.2°F16.2°C 59.4°F15.2°C 94% 2.2 mph S3.5 kmh S 3.8 mph6.1 kmh 29.92 in1013.2 mb 0.00 in0.0 mm 0.00 in0.0 mm 0.00 in0.0 mm
04:15 AM 61.3°F16.3°C 59.6°F15.3°C 94% 0.7 mph S1.1 kmh S 3.8 mph6.1 kmh 29.92 in1013.2 mb 0.00 in0.0 mm 0.00 in0.0 mm 0.00 in0.0 mm
04:20 AM 61.2°F16.2°C 59.4°F15.2°C 94% 1.6 mph WNW2.6 kmh WNW 3.1 mph5.0 kmh 29.92 in1013.2 mb 0.00 in0.0 mm 0.00 in0.0 mm 0.00 in0.0 mm
04:25 AM 60.8°F16.0°C 58.8°F14.9°C 93% Calm Calm 2.2 mph3.5 kmh 29.93 in1013.5 mb 0.00 in0.0 mm 0.00 in0.0 mm 0.00 in0.0 mm
04:30 AM 60.4°F15.8°C 58.7°F14.8°C 94% 3.8 mph SW6.1 kmh SW 4.5 mph7.2 kmh 29.92 in1013.2 mb 0.00 in0.0 mm 0.00 in0.0 mm 0.00 in0.0 mm
04:35 AM 60.6°F15.9°C 59.2°F15.1°C 95% 2.2 mph S3.5 kmh S 4.5 mph7.2 kmh 29.92 in1013.2 mb 0.00 in0.0 mm 0.00 in0.0 mm 0.00 in0.0 mm
04:40 AM 60.6°F15.9°C 59.2°F15.1°C 95% 1.6 mph S2.6 kmh S 4.5 mph7.2 kmh 29.93 in1013.5 mb 0.00 in0.0 mm 0.00 in0.0 mm 0.00 in0.0 mm
04:45 AM 60.6°F15.9°C 59.5°F15.3°C 96% Calm Calm 3.8 mph6.1 kmh 29.93 in1013.5 mb 0.00 in0.0 mm 0.00 in0.0 mm 0.00 in0.0 mm
04:50 AM 60.4°F15.8°C 59.0°F15.0°C 95% 0.7 mph W1.1 kmh W 2.2 mph3.5 kmh 29.93 in1013.5 mb 0.00 in0.0 mm 0.00 in0.0 mm 0.00 in0.0 mm
04:55 AM 60.1°F15.6°C 58.7°F14.8°C 95% 0.7 mph NW1.1 kmh NW 2.2 mph3.5 kmh 29.92 in1013.2 mb 0.00 in0.0 mm 0.00 in0.0 mm 0.00 in0.0 mm
05:00 AM 59.5°F15.3°C 58.1°F14.5°C 95% 0.7 mph NW1.1 kmh NW 2.2 mph3.5 kmh 29.92 in1013.2 mb 0.00 in0.0 mm 0.00 in0.0 mm 0.00 in0.0 mm
05:05 AM 59.5°F15.3°C 58.1°F14.5°C 95% 0.7 mph N1.1 kmh N 1.6 mph2.6 kmh 29.92 in1013.2 mb 0.00 in0.0 mm 0.00 in0.0 mm 0.00 in0.0 mm
05:10 AM 59.0°F15.0°C 57.6°F14.2°C 95% 0.7 mph N1.1 kmh N 1.6 mph2.6 kmh 29.92 in1013.2 mb 0.00 in0.0 mm 0.00 in0.0 mm 0.00 in0.0 mm
05:15 AM 58.6°F14.8°C 57.5°F14.2°C 96% Calm Calm 2.2 mph3.5 kmh 29.92 in1013.2 mb 0.00 in0.0 mm 0.00 in0.0 mm 0.00 in0.0 mm
05:20 AM 58.5°F14.7°C 57.3°F14.1°C 96% Calm Calm 2.2 mph3.5 kmh 29.92 in1013.2 mb 0.00 in0.0 mm 0.00 in0.0 mm 0.00 in0.0 mm
05:25 AM 58.3°F14.6°C 57.4°F14.1°C 97% 1.6 mph N2.6 kmh N 2.2 mph3.5 kmh 29.91 in1012.9 mb 0.00 in0.0 mm 0.00 in0.0 mm 0.00 in0.0 mm
05:30 AM 58.1°F14.5°C 57.3°F14.1°C 97% 2.2 mph NE3.5 kmh NE 3.1 mph5.0 kmh 29.93 in1013.5 mb 0.00 in0.0 mm 0.00 in0.0 mm 0.00 in0.0 mm
05:35 AM 58.3°F14.6°C 57.7°F14.3°C 98% 1.6 mph E2.6 kmh E 4.5 mph7.2 kmh 29.93 in1013.5 mb 0.00 in0.0 mm 0.00 in0.0 mm 0.00 in0.0 mm
05:40 AM 58.5°F14.7°C 57.9°F14.4°C 98% Calm Calm 4.5 mph7.2 kmh 29.92 in1013.2 mb 0.00 in0.0 mm 0.00 in0.0 mm 0.00 in0.0 mm
05:45 AM 58.5°F14.7°C 58.2°F14.6°C 99% 0.7 mph NNE1.1 kmh NNE 3.1 mph5.0 kmh 29.93 in1013.5 mb 0.00 in0.0 mm 0.00 in0.0 mm 0.00 in0.0 mm
05:50 AM 58.5°F14.7°C 58.2°F14.6°C 99% Calm Calm 2.2 mph3.5 kmh 29.92 in1013.2 mb 0.00 in0.0 mm 0.00 in0.0 mm 0.00 in0.0 mm
05:55 AM 58.5°F14.7°C 58.2°F14.6°C 99% Calm Calm 1.6 mph2.6 kmh 29.93 in1013.5 mb 0.00 in0.0 mm 0.00 in0.0 mm 0.00 in0.0 mm
06:00 AM 58.5°F14.7°C 58.2°F14.6°C 99% 2.2 mph SE3.5 kmh SE 3.1 mph5.0 kmh 29.93 in1013.5 mb 0.00 in0.0 mm 0.00 in0.0 mm 0.00 in0.0 mm
06:05 AM 58.8°F14.9°C 58.6°F14.8°C 99% 3.1 mph SE5.0 kmh SE 4.5 mph7.2 kmh 29.93 in1013.5 mb 0.00 in0.0 mm 0.00 in0.0 mm 0.00 in0.0 mm
06:10 AM 59.0°F15.0°C 58.7°F14.8°C 99% 0.7 mph SE1.1 kmh SE 4.5 mph7.2 kmh 29.93 in1013.5 mb 0.00 in0.0 mm 0.00 in0.0 mm 0.00 in0.0 mm
06:15 AM 59.2°F15.1°C 58.9°F14.9°C 99% 2.2 mph SE3.5 kmh SE 3.8 mph6.1 kmh 29.93 in1013.5 mb 0.00 in0.0 mm 0.00 in0.0 mm 0.00 in0.0 mm
06:20 AM 59.5°F15.3°C 59.3°F15.2°C 99% Calm Calm 4.5 mph7.2 kmh 29.93 in1013.5 mb 0.00 in0.0 mm 0.00 in0.0 mm 0.00 in0.0 mm
06:25 AM 59.7°F15.4°C 59.5°F15.3°C 99% 0.7 mph S1.1 kmh S 4.5 mph7.2 kmh 29.93 in1013.5 mb 0.00 in0.0 mm 0.00 in0.0 mm 0.00 in0.0 mm
06:30 AM 59.9°F15.5°C 59.6°F15.3°C 99% 0.7 mph SW1.1 kmh SW 4.5 mph7.2 kmh 29.93 in1013.5 mb 0.00 in0.0 mm 0.00 in0.0 mm 0.00 in0.0 mm
06:35 AM 60.1°F15.6°C 59.8°F15.4°C 99% 1.6 mph WSW2.6 kmh WSW 4.5 mph7.2 kmh 29.93 in1013.5 mb 0.00 in0.0 mm 0.00 in0.0 mm 0.00 in0.0 mm
06:40 AM 60.1°F15.6°C 59.5°F15.3°C 98% Calm Calm 2.2 mph3.5 kmh 29.93 in1013.5 mb 0.00 in0.0 mm 0.00 in0.0 mm 0.00 in0.0 mm
06:45 AM 60.3°F15.7°C 59.7°F15.4°C 98% 2.2 mph W3.5 kmh W 3.1 mph5.0 kmh 29.93 in1013.5 mb 0.00 in0.0 mm 0.00 in0.0 mm 0.00 in0.0 mm
06:50 AM 60.3°F15.7°C 59.7°F15.4°C 98% 0.7 mph WNW1.1 kmh WNW 3.1 mph5.0 kmh 29.94 in1013.9 mb 0.00 in0.0 mm 0.00 in0.0 mm 0.00 in0.0 mm
06:55 AM 60.4°F15.8°C 59.9°F15.5°C 98% 0.7 mph NW1.1 kmh NW 3.1 mph5.0 kmh 29.94 in1013.9 mb 0.00 in0.0 mm 0.00 in0.0 mm 0.00 in0.0 mm
07:00 AM 60.6°F15.9°C 60.1°F15.6°C 98% Calm Calm 2.2 mph3.5 kmh 29.94 in1013.9 mb 0.00 in0.0 mm 0.00 in0.0 mm 0.00 in0.0 mm
07:05 AM 60.6°F15.9°C 60.1°F15.6°C 98% Calm Calm 2.2 mph3.5 kmh 29.94 in1013.9 mb 0.00 in0.0 mm 0.00 in0.0 mm 0.00 in0.0 mm
07:10 AM 61.0°F16.1°C 60.1°F15.6°C 97% 0.7 mph WNW1.1 kmh WNW 2.2 mph3.5 kmh 29.95 in1014.2 mb 0.00 in0.0 mm 0.00 in0.0 mm 0.00 in0.0 mm
07:15 AM 61.0°F16.1°C 60.1°F15.6°C 97% 0.7 mph WNW1.1 kmh WNW 2.2 mph3.5 kmh 29.95 in1014.2 mb 0.00 in0.0 mm 0.00 in0.0 mm 0.00 in0.0 mm
07:20 AM 61.3°F16.3°C 60.5°F15.8°C 97% 0.7 mph WNW1.1 kmh WNW 2.2 mph3.5 kmh 29.94 in1013.9 mb 0.00 in0.0 mm 0.00 in0.0 mm 0.00 in0.0 mm
07:25 AM 61.5°F16.4°C 60.7°F15.9°C 97% 1.6 mph NW2.6 kmh NW 2.2 mph3.5 kmh 29.95 in1014.2 mb 0.00 in0.0 mm 0.00 in0.0 mm 0.00 in0.0 mm
07:30 AM 61.7°F16.5°C 60.6°F15.9°C 96% 1.6 mph NW2.6 kmh NW 2.2 mph3.5 kmh 29.95 in1014.2 mb 0.00 in0.0 mm 0.00 in0.0 mm 0.00 in0.0 mm
07:35 AM 61.9°F16.6°C 60.7°F15.9°C 96% 1.6 mph NNW2.6 kmh NNW 3.1 mph5.0 kmh 29.95 in1014.2 mb 0.00 in0.0 mm 0.00 in0.0 mm 0.00 in0.0 mm
07:40 AM 62.1°F16.7°C 60.9°F16.1°C 96% 0.7 mph N1.1 kmh N 3.1 mph5.0 kmh 29.95 in1014.2 mb 0.00 in0.0 mm 0.00 in0.0 mm 0.00 in0.0 mm
07:45 AM 62.1°F16.7°C 60.9°F16.1°C 96% Calm Calm 2.2 mph3.5 kmh 29.95 in1014.2 mb 0.00 in0.0 mm 0.00 in0.0 mm 0.00 in0.0 mm
07:50 AM 62.2°F16.8°C 61.1°F16.2°C 96% 1.6 mph NW2.6 kmh NW 2.2 mph3.5 kmh 29.95 in1014.2 mb 0.00 in0.0 mm 0.00 in0.0 mm 0.00 in0.0 mm
07:55 AM 62.4°F16.9°C 61.0°F16.1°C 95% 0.7 mph N1.1 kmh N 2.2 mph3.5 kmh 29.96 in1014.6 mb 0.00 in0.0 mm 0.00 in0.0 mm 0.00 in0.0 mm
08:00 AM 62.4°F16.9°C 61.0°F16.1°C 95% Calm Calm 2.2 mph3.5 kmh 29.96 in1014.6 mb 0.00 in0.0 mm 0.00 in0.0 mm 0.00 in0.0 mm
08:05 AM 62.4°F16.9°C 61.0°F16.1°C 95% 1.6 mph ENE2.6 kmh ENE 3.1 mph5.0 kmh 29.96 in1014.6 mb 0.00 in0.0 mm 0.00 in0.0 mm 0.00 in0.0 mm
08:10 AM 62.4°F16.9°C 60.7°F15.9°C 94% 0.7 mph ESE1.1 kmh ESE 3.1 mph5.0 kmh 29.96 in1014.6 mb 0.00 in0.0 mm 0.00 in0.0 mm 0.00 in0.0 mm
08:15 AM 62.4°F16.9°C 60.7°F15.9°C 94% 0.7 mph SE1.1 kmh SE 3.1 mph5.0 kmh 29.96 in1014.6 mb 0.00 in0.0 mm 0.00 in0.0 mm 0.00 in0.0 mm
08:20 AM 62.6°F17.0°C 60.6°F15.9°C 93% 1.6 mph S2.6 kmh S 3.1 mph5.0 kmh 29.96 in1014.6 mb 0.00 in0.0 mm 0.00 in0.0 mm 0.00 in0.0 mm
08:25 AM 63.0°F17.2°C 60.9°F16.1°C 93% 0.7 mph SW1.1 kmh SW 3.1 mph5.0 kmh 29.96 in1014.6 mb 0.00 in0.0 mm 0.00 in0.0 mm 0.00 in0.0 mm
08:30 AM 63.3°F17.4°C 61.3°F16.3°C 93% 3.1 mph SW5.0 kmh SW 4.5 mph7.2 kmh 29.96 in1014.6 mb 0.00 in0.0 mm 0.00 in0.0 mm 0.00 in0.0 mm
08:35 AM 63.7°F17.6°C 61.3°F16.3°C 92% 2.2 mph WSW3.5 kmh WSW 6.0 mph9.7 kmh 29.96 in1014.6 mb 0.00 in0.0 mm 0.00 in0.0 mm 0.00 in0.0 mm
08:40 AM 63.7°F17.6°C 61.3°F16.3°C 92% 2.2 mph W3.5 kmh W 6.0 mph9.7 kmh 29.96 in1014.6 mb 0.00 in0.0 mm 0.00 in0.0 mm 0.00 in0.0 mm
08:45 AM 63.7°F17.6°C 61.0°F16.1°C 91% 1.6 mph W2.6 kmh W 5.4 mph8.7 kmh 29.95 in1014.2 mb 0.00 in0.0 mm 0.00 in0.0 mm 0.00 in0.0 mm
08:50 AM 63.7°F17.6°C 60.7°F15.9°C 90% 3.1 mph WSW5.0 kmh WSW 4.5 mph7.2 kmh 29.96 in1014.6 mb 0.00 in0.0 mm 0.00 in0.0 mm 0.00 in0.0 mm
08:55 AM 63.7°F17.6°C 60.4°F15.8°C 89% 1.6 mph WSW2.6 kmh WSW 4.5 mph7.2 kmh 29.96 in1014.6 mb 0.00 in0.0 mm 0.00 in0.0 mm 0.00 in0.0 mm
09:00 AM 64.2°F17.9°C 60.9°F16.1°C 89% 3.1 mph W5.0 kmh W 4.5 mph7.2 kmh 29.96 in1014.6 mb 0.00 in0.0 mm 0.00 in0.0 mm 0.00 in0.0 mm
09:05 AM 64.4°F18.0°C 61.1°F16.2°C 89% 3.1 mph W5.0 kmh W 4.5 mph7.2 kmh 29.96 in1014.6 mb 0.00 in0.0 mm 0.00 in0.0 mm 0.00 in0.0 mm
09:10 AM 64.6°F18.1°C 61.3°F16.3°C 89% 2.2 mph WNW3.5 kmh WNW 6.0 mph9.7 kmh 29.96 in1014.6 mb 0.00 in0.0 mm 0.00 in0.0 mm 0.00 in0.0 mm
09:15 AM 64.6°F18.1°C 61.0°F16.1°C 88% 3.1 mph WNW5.0 kmh WNW 6.0 mph9.7 kmh 29.96 in1014.6 mb 0.00 in0.0 mm 0.00 in0.0 mm 0.00 in0.0 mm
09:20 AM 64.8°F18.2°C 61.1°F16.2°C 88% 1.6 mph WNW2.6 kmh WNW 4.5 mph7.2 kmh 29.96 in1014.6 mb 0.00 in0.0 mm 0.00 in0.0 mm 0.00 in0.0 mm
09:25 AM 64.9°F18.3°C 61.3°F16.3°C 88% 2.2 mph WNW3.5 kmh WNW 4.5 mph7.2 kmh 29.96 in1014.6 mb 0.00 in0.0 mm 0.00 in0.0 mm 0.00 in0.0 mm
09:30 AM 64.9°F18.3°C 61.3°F16.3°C 88% 2.2 mph W3.5 kmh W 5.4 mph8.7 kmh 29.96 in1014.6 mb 0.00 in0.0 mm 0.00 in0.0 mm 0.00 in0.0 mm
09:35 AM 64.9°F18.3°C 61.3°F16.3°C 88% 2.2 mph W3.5 kmh W 5.4 mph8.7 kmh 29.96 in1014.6 mb 0.00 in0.0 mm 0.00 in0.0 mm 0.00 in0.0 mm
09:40 AM 64.9°F18.3°C 61.3°F16.3°C 88% 0.7 mph W1.1 kmh W 4.5 mph7.2 kmh 29.96 in1014.6 mb 0.00 in0.0 mm 0.00 in0.0 mm 0.00 in0.0 mm
09:45 AM 65.1°F18.4°C 61.5°F16.4°C 88% 3.1 mph W5.0 kmh W 4.5 mph7.2 kmh 29.96 in1014.6 mb 0.00 in0.0 mm 0.00 in0.0 mm 0.00 in0.0 mm
09:50 AM 65.3°F18.5°C 61.7°F16.5°C 88% 1.6 mph SW2.6 kmh SW 4.5 mph7.2 kmh 29.96 in1014.6 mb 0.00 in0.0 mm 0.00 in0.0 mm 0.00 in0.0 mm
09:55 AM 65.7°F18.7°C 62.0°F16.7°C 88% 2.2 mph SW3.5 kmh SW 4.5 mph7.2 kmh 29.96 in1014.6 mb 0.00 in0.0 mm 0.00 in0.0 mm 0.00 in0.0 mm
10:00 AM 66.2°F19.0°C 61.9°F16.6°C 86% 4.5 mph SW7.2 kmh SW 5.4 mph8.7 kmh 29.96 in1014.6 mb 0.00 in0.0 mm 0.00 in0.0 mm 0.00 in0.0 mm
10:05 AM 66.6°F19.2°C 62.3°F16.8°C 86% 4.5 mph SSW7.2 kmh SSW 6.0 mph9.7 kmh 29.96 in1014.6 mb 0.00 in0.0 mm 0.00 in0.0 mm 0.00 in0.0 mm
10:10 AM 66.7°F19.3°C 62.1°F16.7°C 85% 3.8 mph S6.1 kmh S 6.0 mph9.7 kmh 29.96 in1014.6 mb 0.00 in0.0 mm 0.00 in0.0 mm 0.00 in0.0 mm
10:15 AM 67.1°F19.5°C 62.1°F16.7°C 84% 2.2 mph S3.5 kmh S 6.0 mph9.7 kmh 29.96 in1014.6 mb 0.00 in0.0 mm 0.00 in0.0 mm 0.00 in0.0 mm
10:20 AM 67.6°F19.8°C 62.7°F17.1°C 84% 3.1 mph S5.0 kmh S 6.0 mph9.7 kmh 29.96 in1014.6 mb 0.00 in0.0 mm 0.00 in0.0 mm 0.00 in0.0 mm
10:25 AM 68.5°F20.3°C 62.9°F17.2°C 82% 2.2 mph S3.5 kmh S 6.0 mph9.7 kmh 29.96 in1014.6 mb 0.00 in0.0 mm 0.00 in0.0 mm 0.00 in0.0 mm
10:30 AM 69.6°F20.9°C 63.6°F17.6°C 81% 1.6 mph SW2.6 kmh SW 4.5 mph7.2 kmh 29.95 in1014.2 mb 0.00 in0.0 mm 0.00 in0.0 mm 0.00 in0.0 mm
10:35 AM 70.0°F21.1°C 62.8°F17.1°C 78% 0.7 mph SW1.1 kmh SW 4.5 mph7.2 kmh 29.95 in1014.2 mb 0.00 in0.0 mm 0.00 in0.0 mm 0.00 in0.0 mm
10:40 AM 70.7°F21.5°C 63.5°F17.5°C 78% 3.1 mph W5.0 kmh W 5.4 mph8.7 kmh 29.96 in1014.6 mb 0.00 in0.0 mm 0.00 in0.0 mm 0.00 in0.0 mm
10:45 AM 71.2°F21.8°C 63.7°F17.6°C 77% 2.2 mph NW3.5 kmh NW 5.4 mph8.7 kmh 29.95 in1014.2 mb 0.00 in0.0 mm 0.00 in0.0 mm 0.00 in0.0 mm
10:50 AM 71.6°F22.0°C 62.9°F17.2°C 74% 3.8 mph WNW6.1 kmh WNW 5.4 mph8.7 kmh 29.96 in1014.6 mb 0.00 in0.0 mm 0.00 in0.0 mm 0.00 in0.0 mm
10:55 AM 72.1°F22.3°C 63.8°F17.7°C 75% 3.1 mph WNW5.0 kmh WNW 5.4 mph8.7 kmh 29.95 in1014.2 mb 0.00 in0.0 mm 0.00 in0.0 mm 0.00 in0.0 mm
11:00 AM 72.3°F22.4°C 63.2°F17.3°C 73% 2.2 mph WNW3.5 kmh WNW 6.0 mph9.7 kmh 29.96 in1014.6 mb 0.00 in0.0 mm 0.00 in0.0 mm 0.00 in0.0 mm
11:05 AM 72.3°F22.4°C 63.2°F17.3°C 73% 2.2 mph WNW3.5 kmh WNW 6.0 mph9.7 kmh 29.96 in1014.6 mb 0.00 in0.0 mm 0.00 in0.0 mm 0.00 in0.0 mm
11:10 AM 72.9°F22.7°C 64.1°F17.8°C 74% 1.6 mph NW2.6 kmh NW 3.8 mph6.1 kmh 29.96 in1014.6 mb 0.00 in0.0 mm 0.00 in0.0 mm 0.00 in0.0 mm
11:15 AM 73.6°F23.1°C 64.4°F18.0°C 73% 1.6 mph WSW2.6 kmh WSW 3.8 mph6.1 kmh 29.95 in1014.2 mb 0.00 in0.0 mm 0.00 in0.0 mm 0.00 in0.0 mm
11:20 AM 73.9°F23.3°C 64.0°F17.8°C 71% 2.2 mph SW3.5 kmh SW 5.4 mph8.7 kmh 29.96 in1014.6 mb 0.00 in0.0 mm 0.00 in0.0 mm 0.00 in0.0 mm
11:25 AM 73.9°F23.3°C 64.0°F17.8°C 71% 3.8 mph WNW6.1 kmh WNW 6.9 mph11.1 kmh 29.96 in1014.6 mb 0.00 in0.0 mm 0.00 in0.0 mm 0.00 in0.0 mm
11:30 AM 73.6°F23.1°C 63.2°F17.3°C 70% 3.1 mph WNW5.0 kmh WNW 6.9 mph11.1 kmh 29.96 in1014.6 mb 0.00 in0.0 mm 0.00 in0.0 mm 0.00 in0.0 mm
11:35 AM 73.4°F23.0°C 63.1°F17.3°C 70% 0.7 mph W1.1 kmh W 5.4 mph8.7 kmh 29.96 in1014.6 mb 0.00 in0.0 mm 0.00 in0.0 mm 0.00 in0.0 mm
11:40 AM 73.9°F23.3°C 64.0°F17.8°C 71% 3.8 mph NW6.1 kmh NW 5.4 mph8.7 kmh 29.95 in1014.2 mb 0.00 in0.0 mm 0.00 in0.0 mm 0.00 in0.0 mm
11:45 AM 74.7°F23.7°C 64.7°F18.2°C 71% 3.1 mph NNW5.0 kmh NNW 5.4 mph8.7 kmh 29.95 in1014.2 mb 0.00 in0.0 mm 0.00 in0.0 mm 0.00 in0.0 mm
11:50 AM 74.8°F23.8°C 64.0°F17.8°C 69% 0.7 mph NNW1.1 kmh NNW 5.4 mph8.7 kmh 29.95 in1014.2 mb 0.00 in0.0 mm 0.00 in0.0 mm 0.00 in0.0 mm
11:55 AM 75.0°F23.9°C 63.8°F17.7°C 68% 3.8 mph W6.1 kmh W 5.4 mph8.7 kmh 29.96 in1014.6 mb 0.00 in0.0 mm 0.00 in0.0 mm 0.00 in0.0 mm
12:00 PM 75.0°F23.9°C 64.2°F17.9°C 69% 2.2 mph WNW3.5 kmh WNW 5.4 mph8.7 kmh 29.95 in1014.2 mb 0.00 in0.0 mm 0.00 in0.0 mm 0.00 in0.0 mm
12:05 PM 75.4°F24.1°C 64.1°F17.8°C 68% 0.7 mph W1.1 kmh W 5.4 mph8.7 kmh 29.95 in1014.2 mb 0.00 in0.0 mm 0.00 in0.0 mm 0.00 in0.0 mm
12:10 PM 76.1°F24.5°C 64.4°F18.0°C 67% 3.8 mph SSW6.1 kmh SSW 7.6 mph12.2 kmh 29.95 in1014.2 mb 0.00 in0.0 mm 0.00 in0.0 mm 0.00 in0.0 mm
12:15 PM 75.7°F24.3°C 63.2°F17.3°C 65% 1.6 mph SW2.6 kmh SW 8.3 mph13.4 kmh 29.95 in1014.2 mb 0.00 in0.0 mm 0.00 in0.0 mm 0.00 in0.0 mm
12:20 PM 75.7°F24.3°C 63.6°F17.6°C 66% 3.8 mph SW6.1 kmh SW 8.3 mph13.4 kmh 29.95 in1014.2 mb 0.00 in0.0 mm 0.00 in0.0 mm 0.00 in0.0 mm
12:25 PM 76.5°F24.7°C 64.3°F17.9°C 66% 2.2 mph SW3.5 kmh SW 9.2 mph14.8 kmh 29.94 in1013.9 mb 0.00 in0.0 mm 0.00 in0.0 mm 0.00 in0.0 mm
12:30 PM 77.0°F25.0°C 63.9°F17.7°C 64% 3.8 mph SW6.1 kmh SW 9.2 mph14.8 kmh 29.94 in1013.9 mb 0.00 in0.0 mm 0.00 in0.0 mm 0.00 in0.0 mm
12:35 PM 77.5°F25.3°C 64.4°F18.0°C 64% Calm Calm 7.6 mph12.2 kmh 29.94 in1013.9 mb 0.00 in0.0 mm 0.00 in0.0 mm 0.00 in0.0 mm
12:40 PM 78.6°F25.9°C 65.5°F18.6°C 64% 1.6 mph SW2.6 kmh SW 7.6 mph12.2 kmh 29.94 in1013.9 mb 0.00 in0.0 mm 0.00 in0.0 mm 0.00 in0.0 mm
12:45 PM 79.2°F26.2°C 64.1°F17.8°C 60% 3.8 mph WNW6.1 kmh WNW 6.9 mph11.1 kmh 29.93 in1013.5 mb 0.00 in0.0 mm 0.00 in0.0 mm 0.00 in0.0 mm
12:50 PM 79.7°F26.5°C 64.6°F18.1°C 60% 3.1 mph NW5.0 kmh NW 6.9 mph11.1 kmh 29.94 in1013.9 mb 0.00 in0.0 mm 0.00 in0.0 mm 0.00 in0.0 mm
12:55 PM 80.1°F26.7°C 65.0°F18.3°C 60% 5.4 mph WNW8.7 kmh WNW 8.3 mph13.4 kmh 29.93 in1013.5 mb 0.00 in0.0 mm 0.00 in0.0 mm 0.00 in0.0 mm
01:00 PM 80.4°F26.9°C 64.8°F18.2°C 59% 4.5 mph WNW7.2 kmh WNW 8.3 mph13.4 kmh 29.93 in1013.5 mb 0.00 in0.0 mm 0.00 in0.0 mm 0.00 in0.0 mm
01:05 PM 80.4°F26.9°C 64.8°F18.2°C 59% 4.5 mph WNW7.2 kmh WNW 8.3 mph13.4 kmh 29.93 in1013.5 mb 0.00 in0.0 mm 0.00 in0.0 mm 0.00 in0.0 mm
01:10 PM 79.3°F26.3°C 63.3°F17.4°C 58% 3.8 mph NW6.1 kmh NW 6.0 mph9.7 kmh 29.93 in1013.5 mb 0.00 in0.0 mm 0.00 in0.0 mm 0.00 in0.0 mm
01:15 PM 78.8°F26.0°C 62.3°F16.8°C 57% 3.1 mph W5.0 kmh W 6.0 mph9.7 kmh 29.92 in1013.2 mb 0.00 in0.0 mm 0.00 in0.0 mm 0.00 in0.0 mm
01:20 PM 78.6°F25.9°C 63.1°F17.3°C 59% 3.8 mph W6.1 kmh W 8.3 mph13.4 kmh 29.92 in1013.2 mb 0.00 in0.0 mm 0.00 in0.0 mm 0.00 in0.0 mm
01:25 PM 79.0°F26.1°C 64.4°F18.0°C 61% 2.2 mph W3.5 kmh W 8.3 mph13.4 kmh 29.92 in1013.2 mb 0.00 in0.0 mm 0.00 in0.0 mm 0.00 in0.0 mm
01:30 PM 79.7°F26.5°C 64.6°F18.1°C 60% 3.8 mph SW6.1 kmh SW 8.3 mph13.4 kmh 29.92 in1013.2 mb 0.00 in0.0 mm 0.00 in0.0 mm 0.00 in0.0 mm
01:35 PM 80.2°F26.8°C 64.2°F17.9°C 58% 4.5 mph SW7.2 kmh SW 8.3 mph13.4 kmh 29.92 in1013.2 mb 0.00 in0.0 mm 0.00 in0.0 mm 0.00 in0.0 mm
01:40 PM 80.4°F26.9°C 63.8°F17.7°C 57% 1.6 mph WSW2.6 kmh WSW 8.3 mph13.4 kmh 29.92 in1013.2 mb 0.00 in0.0 mm 0.00 in0.0 mm 0.00 in0.0 mm
01:45 PM 81.0°F27.2°C 64.3°F17.9°C 57% 4.5 mph W7.2 kmh W 8.3 mph13.4 kmh 29.91 in1012.9 mb 0.00 in0.0 mm 0.00 in0.0 mm 0.00 in0.0 mm
01:50 PM 81.5°F27.5°C 64.8°F18.2°C 57% Calm Calm 8.3 mph13.4 kmh 29.91 in1012.9 mb 0.00 in0.0 mm 0.00 in0.0 mm 0.00 in0.0 mm
01:55 PM 82.0°F27.8°C 64.8°F18.2°C 56% 4.5 mph NW7.2 kmh NW 8.3 mph13.4 kmh 29.91 in1012.9 mb 0.00 in0.0 mm 0.00 in0.0 mm 0.00 in0.0 mm
02:00 PM 82.9°F28.3°C 65.2°F18.4°C 55% 2.2 mph NNW3.5 kmh NNW 8.3 mph13.4 kmh 29.90 in1012.5 mb 0.00 in0.0 mm 0.00 in0.0 mm 0.00 in0.0 mm
02:05 PM 83.3°F28.5°C 64.4°F18.0°C 53% 3.8 mph NW6.1 kmh NW 9.2 mph14.8 kmh 29.90 in1012.5 mb 0.00 in0.0 mm 0.00 in0.0 mm 0.00 in0.0 mm
02:10 PM 83.3°F28.5°C 62.8°F17.1°C 50% 3.1 mph WSW5.0 kmh WSW 10.7 mph17.2 kmh 29.90 in1012.5 mb 0.00 in0.0 mm 0.00 in0.0 mm 0.00 in0.0 mm
02:15 PM 83.1°F28.4°C 64.3°F17.9°C 53% 2.2 mph WSW3.5 kmh WSW 10.7 mph17.2 kmh 29.90 in1012.5 mb 0.00 in0.0 mm 0.00 in0.0 mm 0.00 in0.0 mm
02:20 PM 82.9°F28.3°C 63.6°F17.6°C 52% 3.1 mph W5.0 kmh W 10.7 mph17.2 kmh 29.89 in1012.2 mb 0.00 in0.0 mm 0.00 in0.0 mm 0.00 in0.0 mm
02:25 PM 81.9°F27.7°C 62.0°F16.7°C 51% 1.6 mph W2.6 kmh W 10.7 mph17.2 kmh 29.89 in1012.2 mb 0.00 in0.0 mm 0.00 in0.0 mm 0.00 in0.0 mm
02:30 PM 81.1°F27.3°C 62.4°F16.9°C 53% 2.2 mph W3.5 kmh W 7.6 mph12.2 kmh 29.89 in1012.2 mb 0.00 in0.0 mm 0.00 in0.0 mm 0.00 in0.0 mm
02:35 PM 80.6°F27.0°C 62.5°F16.9°C 54% 0.7 mph W1.1 kmh W 4.5 mph7.2 kmh 29.89 in1012.2 mb 0.00 in0.0 mm 0.00 in0.0 mm 0.00 in0.0 mm
02:40 PM 80.2°F26.8°C 63.2°F17.3°C 56% 2.2 mph W3.5 kmh W 5.4 mph8.7 kmh 29.89 in1012.2 mb 0.00 in0.0 mm 0.00 in0.0 mm 0.00 in0.0 mm
02:45 PM 79.9°F26.6°C 63.8°F17.7°C 58% 3.8 mph W6.1 kmh W 5.4 mph8.7 kmh 29.89 in1012.2 mb 0.00 in0.0 mm 0.00 in0.0 mm 0.00 in0.0 mm
02:50 PM 79.5°F26.4°C 64.9°F18.3°C 61% 3.8 mph NNW6.1 kmh NNW 6.9 mph11.1 kmh 29.89 in1012.2 mb 0.00 in0.0 mm 0.00 in0.0 mm 0.00 in0.0 mm
02:55 PM 79.2°F26.2°C 62.2°F16.8°C 56% 7.6 mph N12.2 kmh N 9.2 mph14.8 kmh 29.89 in1012.2 mb 0.00 in0.0 mm 0.00 in0.0 mm 0.00 in0.0 mm
03:00 PM 78.8°F26.0°C 59.7°F15.4°C 52% 6.0 mph NNW9.7 kmh NNW 9.2 mph14.8 kmh 29.88 in1011.9 mb 0.00 in0.0 mm 0.00 in0.0 mm 0.00 in0.0 mm
03:05 PM 78.4°F25.8°C 59.9°F15.5°C 53% 5.4 mph NW8.7 kmh NW 9.2 mph14.8 kmh 29.87 in1011.5 mb 0.00 in0.0 mm 0.00 in0.0 mm 0.00 in0.0 mm
03:10 PM 78.4°F25.8°C 61.0°F16.1°C 55% 3.8 mph NW6.1 kmh NW 9.2 mph14.8 kmh 29.86 in1011.2 mb 0.00 in0.0 mm 0.00 in0.0 mm 0.00 in0.0 mm
03:15 PM 78.6°F25.9°C 61.7°F16.5°C 56% 3.8 mph NW6.1 kmh NW 6.9 mph11.1 kmh 29.86 in1011.2 mb 0.00 in0.0 mm 0.00 in0.0 mm 0.00 in0.0 mm
03:20 PM 79.3°F26.3°C 62.3°F16.8°C 56% 2.2 mph NW3.5 kmh NW 5.4 mph8.7 kmh 29.86 in1011.2 mb 0.00 in0.0 mm 0.00 in0.0 mm 0.00 in0.0 mm
03:25 PM 80.4°F26.9°C 62.3°F16.8°C 54% Calm Calm 5.4 mph8.7 kmh 29.85 in1010.8 mb 0.00 in0.0 mm 0.00 in0.0 mm 0.00 in0.0 mm
03:30 PM 81.3°F27.4°C 62.1°F16.7°C 52% 5.4 mph NE8.7 kmh NE 8.3 mph13.4 kmh 29.85 in1010.8 mb 0.00 in0.0 mm 0.00 in0.0 mm 0.00 in0.0 mm
03:35 PM 81.9°F27.7°C 62.0°F16.7°C 51% Calm Calm 8.3 mph13.4 kmh 29.85 in1010.8 mb 0.00 in0.0 mm 0.00 in0.0 mm 0.00 in0.0 mm
03:40 PM 83.1°F28.4°C 61.4°F16.3°C 48% 1.6 mph ESE2.6 kmh ESE 8.3 mph13.4 kmh 29.85 in1010.8 mb 0.00 in0.0 mm 0.00 in0.0 mm 0.00 in0.0 mm
03:45 PM 84.6°F29.2°C 61.6°F16.4°C 46% 4.5 mph SW7.2 kmh SW 9.2 mph14.8 kmh 29.85 in1010.8 mb 0.00 in0.0 mm 0.00 in0.0 mm 0.00 in0.0 mm
03:50 PM 85.1°F29.5°C 63.3°F17.4°C 48% 2.2 mph WNW3.5 kmh WNW 9.2 mph14.8 kmh 29.86 in1011.2 mb 0.00 in0.0 mm 0.00 in0.0 mm 0.00 in0.0 mm
03:55 PM 85.5°F29.7°C 63.0°F17.2°C 47% 3.8 mph NW6.1 kmh NW 9.2 mph14.8 kmh 29.86 in1011.2 mb 0.00 in0.0 mm 0.00 in0.0 mm 0.00 in0.0 mm
04:00 PM 85.6°F29.8°C 62.5°F16.9°C 46% 3.8 mph WSW6.1 kmh WSW 8.3 mph13.4 kmh 29.85 in1010.8 mb 0.00 in0.0 mm 0.00 in0.0 mm 0.00 in0.0 mm
04:05 PM 86.0°F30.0°C 62.9°F17.2°C 46% 5.4 mph SW8.7 kmh SW 9.8 mph15.8 kmh 29.85 in1010.8 mb 0.00 in0.0 mm 0.00 in0.0 mm 0.00 in0.0 mm
04:10 PM 86.2°F30.1°C 63.6°F17.6°C 47% 3.8 mph W6.1 kmh W 9.8 mph15.8 kmh 29.85 in1010.8 mb 0.00 in0.0 mm 0.00 in0.0 mm 0.00 in0.0 mm
04:15 PM 86.5°F30.3°C 63.4°F17.4°C 46% 6.9 mph W11.1 kmh W 10.7 mph17.2 kmh 29.84 in1010.5 mb 0.00 in0.0 mm 0.00 in0.0 mm 0.00 in0.0 mm
04:20 PM 86.4°F30.2°C 62.6°F17.0°C 45% 7.6 mph W12.2 kmh W 13.6 mph21.9 kmh 29.85 in1010.8 mb 0.00 in0.0 mm 0.00 in0.0 mm 0.00 in0.0 mm
04:25 PM 85.8°F29.9°C 62.7°F17.1°C 46% 11.4 mph W18.3 kmh W 16.8 mph27.0 kmh 29.86 in1011.2 mb 0.00 in0.0 mm 0.00 in0.0 mm 0.00 in0.0 mm
04:30 PM 85.3°F29.6°C 63.4°F17.4°C 48% 6.0 mph W9.7 kmh W 16.8 mph27.0 kmh 29.86 in1011.2 mb 0.00 in0.0 mm 0.00 in0.0 mm 0.00 in0.0 mm
04:35 PM 83.8°F28.8°C 62.7°F17.1°C 49% 9.8 mph NW15.8 kmh NW 18.3 mph29.5 kmh 29.86 in1011.2 mb 0.00 in0.0 mm 0.00 in0.0 mm 0.00 in0.0 mm
04:40 PM 82.4°F28.0°C 62.5°F16.9°C 51% 11.4 mph NW18.3 kmh NW 18.3 mph29.5 kmh 29.87 in1011.5 mb 0.00 in0.0 mm 0.00 in0.0 mm 0.00 in0.0 mm
04:45 PM 81.0°F27.2°C 61.7°F16.5°C 52% 8.3 mph NW13.4 kmh NW 18.3 mph29.5 kmh 29.87 in1011.5 mb 0.00 in0.0 mm 0.00 in0.0 mm 0.00 in0.0 mm
04:50 PM 79.5°F26.4°C 62.0°F16.7°C 55% 8.3 mph WNW13.4 kmh WNW 17.4 mph28.0 kmh 29.86 in1011.2 mb 0.00 in0.0 mm 0.00 in0.0 mm 0.00 in0.0 mm
04:55 PM 78.3°F25.7°C 61.8°F16.6°C 57% 7.6 mph WNW12.2 kmh WNW 14.5 mph23.3 kmh 29.87 in1011.5 mb 0.00 in0.0 mm 0.00 in0.0 mm 0.00 in0.0 mm
05:00 PM 77.4°F25.2°C 61.5°F16.4°C 58% 9.2 mph W14.8 kmh W 15.9 mph25.6 kmh 29.86 in1011.2 mb 0.00 in0.0 mm 0.00 in0.0 mm 0.00 in0.0 mm
05:05 PM 77.4°F25.2°C 61.5°F16.4°C 58% 7.6 mph W12.2 kmh W 15.9 mph25.6 kmh 29.87 in1011.5 mb 0.00 in0.0 mm 0.00 in0.0 mm 0.00 in0.0 mm
05:10 PM 77.9°F25.5°C 61.0°F16.1°C 56% 8.3 mph W13.4 kmh W 14.5 mph23.3 kmh 29.87 in1011.5 mb 0.00 in0.0 mm 0.00 in0.0 mm 0.00 in0.0 mm
05:15 PM 77.7°F25.4°C 60.3°F15.7°C 55% 5.4 mph WSW8.7 kmh WSW 14.5 mph23.3 kmh 29.88 in1011.9 mb 0.00 in0.0 mm 0.00 in0.0 mm 0.00 in0.0 mm
05:20 PM 76.8°F24.9°C 60.5°F15.8°C 57% 9.2 mph SW14.8 kmh SW 16.8 mph27.0 kmh 29.89 in1012.2 mb 0.00 in0.0 mm 0.00 in0.0 mm 0.00 in0.0 mm
05:25 PM 75.9°F24.4°C 60.6°F15.9°C 59% 7.6 mph S12.2 kmh S 16.8 mph27.0 kmh 29.92 in1013.2 mb 0.00 in0.0 mm 0.00 in0.0 mm 0.00 in0.0 mm
05:30 PM 72.9°F22.7°C 58.7°F14.8°C 61% 10.7 mph S17.2 kmh S 24.4 mph39.3 kmh 29.91 in1012.9 mb 0.00 in0.0 mm 0.00 in0.0 mm 0.00 in0.0 mm
05:35 PM 72.0°F22.2°C 60.4°F15.8°C 67% 11.4 mph S18.3 kmh S 24.4 mph39.3 kmh 29.90 in1012.5 mb 0.00 in0.0 mm 0.00 in0.0 mm 0.00 in0.0 mm
05:40 PM 72.1°F22.3°C 61.0°F16.1°C 68% 6.0 mph S9.7 kmh S 20.6 mph33.2 kmh 29.91 in1012.9 mb 0.00 in0.0 mm 0.00 in0.0 mm 0.00 in0.0 mm
05:45 PM 72.0°F22.2°C 60.0°F15.6°C 66% 9.8 mph S15.8 kmh S 19.0 mph30.6 kmh 29.91 in1012.9 mb 0.00 in0.0 mm 0.00 in0.0 mm 0.00 in0.0 mm
05:50 PM 71.6°F22.0°C 58.4°F14.7°C 63% 6.0 mph S9.7 kmh S 14.5 mph23.3 kmh 29.90 in1012.5 mb 0.00 in0.0 mm 0.00 in0.0 mm 0.00 in0.0 mm
05:55 PM 71.4°F21.9°C 57.7°F14.3°C 62% 1.6 mph SSW2.6 kmh SSW 14.5 mph23.3 kmh 29.91 in1012.9 mb 0.00 in0.0 mm 0.00 in0.0 mm 0.00 in0.0 mm
06:00 PM 71.2°F21.8°C 58.0°F14.4°C 63% 8.3 mph SSW13.4 kmh SSW 14.5 mph23.3 kmh 29.91 in1012.9 mb 0.00 in0.0 mm 0.00 in0.0 mm 0.00 in0.0 mm
06:05 PM 71.1°F21.7°C 59.2°F15.1°C 66% 3.1 mph WSW5.0 kmh WSW 11.4 mph18.3 kmh 29.91 in1012.9 mb 0.00 in0.0 mm 0.00 in0.0 mm 0.00 in0.0 mm
06:10 PM 71.6°F22.0°C 60.1°F15.6°C 67% 3.1 mph W5.0 kmh W 11.4 mph18.3 kmh 29.91 in1012.9 mb 0.00 in0.0 mm 0.00 in0.0 mm 0.00 in0.0 mm
06:15 PM 72.7°F22.6°C 62.4°F16.9°C 70% 6.0 mph WNW9.7 kmh WNW 7.6 mph12.2 kmh 29.91 in1012.9 mb 0.00 in0.0 mm 0.00 in0.0 mm 0.00 in0.0 mm
06:20 PM 73.8°F23.2°C 62.6°F17.0°C 68% 3.8 mph NW6.1 kmh NW 9.2 mph14.8 kmh 29.91 in1012.9 mb 0.00 in0.0 mm 0.00 in0.0 mm 0.00 in0.0 mm
06:25 PM 74.5°F23.6°C 61.5°F16.4°C 64% 3.8 mph WNW6.1 kmh WNW 10.7 mph17.2 kmh 29.92 in1013.2 mb 0.00 in0.0 mm 0.00 in0.0 mm 0.00 in0.0 mm
06:30 PM 74.8°F23.8°C 61.0°F16.1°C 62% 6.0 mph W9.7 kmh W 10.7 mph17.2 kmh 29.92 in1013.2 mb 0.00 in0.0 mm 0.00 in0.0 mm 0.00 in0.0 mm
06:35 PM 75.0°F23.9°C 60.2°F15.7°C 60% 7.6 mph W12.2 kmh W 12.1 mph19.5 kmh 29.92 in1013.2 mb 0.00 in0.0 mm 0.00 in0.0 mm 0.00 in0.0 mm
06:40 PM 74.8°F23.8°C 59.6°F15.3°C 59% 5.4 mph W8.7 kmh W 12.1 mph19.5 kmh 29.92 in1013.2 mb 0.00 in0.0 mm 0.00 in0.0 mm 0.00 in0.0 mm
06:45 PM 74.7°F23.7°C 59.9°F15.5°C 60% 5.4 mph WSW8.7 kmh WSW 11.4 mph18.3 kmh 29.92 in1013.2 mb 0.00 in0.0 mm 0.00 in0.0 mm 0.00 in0.0 mm
06:50 PM 74.5°F23.6°C 60.2°F15.7°C 61% 3.8 mph W6.1 kmh W 12.1 mph19.5 kmh 29.93 in1013.5 mb 0.00 in0.0 mm 0.00 in0.0 mm 0.00 in0.0 mm
07:00 PM 73.2°F22.9°C 59.5°F15.3°C 62% 6.9 mph WNW11.1 kmh WNW 17.4 mph28.0 kmh 29.93 in1013.5 mb 0.00 in0.0 mm 0.00 in0.0 mm 0.00 in0.0 mm
07:05 PM 72.5°F22.5°C 58.8°F14.9°C 62% 7.6 mph W12.2 kmh W 17.4 mph28.0 kmh 29.94 in1013.9 mb 0.00 in0.0 mm 0.00 in0.0 mm 0.00 in0.0 mm
07:10 PM 72.0°F22.2°C 58.3°F14.6°C 62% 7.6 mph SW12.2 kmh SW 13.6 mph21.9 kmh 29.95 in1014.2 mb 0.00 in0.0 mm 0.00 in0.0 mm 0.00 in0.0 mm
07:15 PM 71.8°F22.1°C 58.1°F14.5°C 62% 7.6 mph S12.2 kmh S 13.6 mph21.9 kmh 29.96 in1014.6 mb 0.00 in0.0 mm 0.00 in0.0 mm 0.00 in0.0 mm
07:20 PM 71.6°F22.0°C 56.1°F13.4°C 58% 12.1 mph SE19.5 kmh SE 19.7 mph31.7 kmh 29.97 in1014.9 mb 0.00 in0.0 mm 0.00 in0.0 mm 0.00 in0.0 mm
07:25 PM 71.1°F21.7°C 54.6°F12.6°C 56% 8.3 mph SE13.4 kmh SE 19.7 mph31.7 kmh 29.96 in1014.6 mb 0.00 in0.0 mm 0.00 in0.0 mm 0.00 in0.0 mm
07:30 PM 70.3°F21.3°C 53.9°F12.2°C 56% 9.8 mph SE15.8 kmh SE 19.7 mph31.7 kmh 29.96 in1014.6 mb 0.00 in0.0 mm 0.00 in0.0 mm 0.00 in0.0 mm
07:35 PM 69.8°F21.0°C 53.9°F12.2°C 57% 8.3 mph SE13.4 kmh SE 19.7 mph31.7 kmh 29.96 in1014.6 mb 0.00 in0.0 mm 0.00 in0.0 mm 0.00 in0.0 mm
07:40 PM 69.4°F20.8°C 55.4°F13.0°C 61% 10.7 mph SE17.2 kmh SE 17.4 mph28.0 kmh 29.97 in1014.9 mb 0.00 in0.0 mm 0.00 in0.0 mm 0.00 in0.0 mm
07:45 PM 69.1°F20.6°C 55.1°F12.8°C 61% 6.9 mph SE11.1 kmh SE 17.4 mph28.0 kmh 29.96 in1014.6 mb 0.00 in0.0 mm 0.00 in0.0 mm 0.00 in0.0 mm
07:50 PM 69.3°F20.7°C 54.8°F12.7°C 60% 3.8 mph SSE6.1 kmh SSE 16.8 mph27.0 kmh 29.96 in1014.6 mb 0.00 in0.0 mm 0.00 in0.0 mm 0.00 in0.0 mm
07:55 PM 69.8°F21.0°C 54.4°F12.4°C 58% 3.1 mph SSE5.0 kmh SSE 12.1 mph19.5 kmh 29.96 in1014.6 mb 0.00 in0.0 mm 0.00 in0.0 mm 0.00 in0.0 mm
08:00 PM 70.3°F21.3°C 55.4°F13.0°C 59% 6.9 mph SE11.1 kmh SE 9.2 mph14.8 kmh 29.97 in1014.9 mb 0.00 in0.0 mm 0.00 in0.0 mm 0.00 in0.0 mm
08:05 PM 70.2°F21.2°C 56.1°F13.4°C 61% 4.5 mph ESE7.2 kmh ESE 9.2 mph14.8 kmh 29.98 in1015.2 mb 0.00 in0.0 mm 0.00 in0.0 mm 0.00 in0.0 mm
08:10 PM 69.6°F20.9°C 56.5°F13.6°C 63% 4.5 mph E7.2 kmh E 9.2 mph14.8 kmh 29.98 in1015.2 mb 0.00 in0.0 mm 0.00 in0.0 mm 0.00 in0.0 mm
08:15 PM 69.3°F20.7°C 56.2°F13.4°C 63% 2.2 mph E3.5 kmh E 8.3 mph13.4 kmh 29.98 in1015.2 mb 0.00 in0.0 mm 0.00 in0.0 mm 0.00 in0.0 mm
08:25 PM 68.7°F20.4°C 55.6°F13.1°C 63% 2.2 mph ESE3.5 kmh ESE 7.6 mph12.2 kmh 30.00 in1015.9 mb 0.00 in0.0 mm 0.00 in0.0 mm 0.00 in0.0 mm
08:30 PM 68.5°F20.3°C 55.5°F13.1°C 63% 2.2 mph SE3.5 kmh SE 3.8 mph6.1 kmh 30.01 in1016.3 mb 0.00 in0.0 mm 0.00 in0.0 mm 0.00 in0.0 mm
08:35 PM 68.4°F20.2°C 55.3°F12.9°C 63% 2.2 mph ESE3.5 kmh ESE 6.0 mph9.7 kmh 30.01 in1016.3 mb 0.00 in0.0 mm 0.00 in0.0 mm 0.00 in0.0 mm
08:40 PM 68.2°F20.1°C 55.6°F13.1°C 64% 2.2 mph ENE3.5 kmh ENE 6.0 mph9.7 kmh 30.01 in1016.3 mb 0.00 in0.0 mm 0.00 in0.0 mm 0.00 in0.0 mm
08:45 PM 68.0°F20.0°C 55.4°F13.0°C 64% 3.8 mph N6.1 kmh N 8.3 mph13.4 kmh 30.02 in1016.6 mb 0.00 in0.0 mm 0.00 in0.0 mm 0.00 in0.0 mm
08:50 PM 68.0°F20.0°C 55.4°F13.0°C 64% 7.6 mph ENE12.2 kmh ENE 9.8 mph15.8 kmh 30.02 in1016.6 mb 0.00 in0.0 mm 0.00 in0.0 mm 0.00 in0.0 mm
08:55 PM 68.2°F20.1°C 56.0°F13.3°C 65% 7.6 mph ESE12.2 kmh ESE 13.6 mph21.9 kmh 30.01 in1016.3 mb 0.00 in0.0 mm 0.00 in0.0 mm 0.00 in0.0 mm
09:00 PM 68.0°F20.0°C 56.2°F13.4°C 66% 6.0 mph E9.7 kmh E 13.6 mph21.9 kmh 30.02 in1016.6 mb 0.00 in0.0 mm 0.00 in0.0 mm 0.00 in0.0 mm
09:05 PM 67.8°F19.9°C 56.5°F13.6°C 67% 3.8 mph E6.1 kmh E 13.0 mph20.9 kmh 30.02 in1016.6 mb 0.00 in0.0 mm 0.00 in0.0 mm 0.00 in0.0 mm
09:10 PM 67.5°F19.7°C 56.6°F13.7°C 68% 2.2 mph E3.5 kmh E 9.2 mph14.8 kmh 30.02 in1016.6 mb 0.00 in0.0 mm 0.00 in0.0 mm 0.00 in0.0 mm
09:15 PM 67.3°F19.6°C 56.4°F13.6°C 68% 3.1 mph E5.0 kmh E 6.0 mph9.7 kmh 30.02 in1016.6 mb 0.00 in0.0 mm 0.00 in0.0 mm 0.00 in0.0 mm
09:20 PM 67.3°F19.6°C 56.4°F13.6°C 68% 1.6 mph NE2.6 kmh NE 5.4 mph8.7 kmh 30.02 in1016.6 mb 0.00 in0.0 mm 0.00 in0.0 mm 0.00 in0.0 mm
09:25 PM 67.1°F19.5°C 56.6°F13.7°C 69% 2.2 mph E3.5 kmh E 5.4 mph8.7 kmh 30.02 in1016.6 mb 0.00 in0.0 mm 0.00 in0.0 mm 0.00 in0.0 mm
09:30 PM 66.9°F19.4°C 56.8°F13.8°C 70% 2.2 mph SE3.5 kmh SE 4.5 mph7.2 kmh 30.03 in1016.9 mb 0.00 in0.0 mm 0.00 in0.0 mm 0.00 in0.0 mm
09:35 PM 66.6°F19.2°C 56.9°F13.8°C 71% 3.1 mph SE5.0 kmh SE 5.4 mph8.7 kmh 30.03 in1016.9 mb 0.00 in0.0 mm 0.00 in0.0 mm 0.00 in0.0 mm
09:40 PM 66.4°F19.1°C 57.1°F13.9°C 72% 1.6 mph ESE2.6 kmh ESE 5.4 mph8.7 kmh 30.03 in1016.9 mb 0.00 in0.0 mm 0.00 in0.0 mm 0.00 in0.0 mm
09:50 PM 65.7°F18.7°C 57.5°F14.2°C 75% 1.6 mph N2.6 kmh N 2.2 mph3.5 kmh 30.03 in1016.9 mb 0.00 in0.0 mm 0.00 in0.0 mm 0.00 in0.0 mm
09:55 PM 65.3°F18.5°C 57.6°F14.2°C 76% 1.6 mph NW2.6 kmh NW 2.2 mph3.5 kmh 30.03 in1016.9 mb 0.00 in0.0 mm 0.00 in0.0 mm 0.00 in0.0 mm
10:00 PM 64.9°F18.3°C 57.6°F14.2°C 77% 0.7 mph NW1.1 kmh NW 2.2 mph3.5 kmh 30.04 in1017.3 mb 0.00 in0.0 mm 0.00 in0.0 mm 0.00 in0.0 mm
10:05 PM 64.6°F18.1°C 57.6°F14.2°C 78% Calm Calm 2.2 mph3.5 kmh 30.03 in1016.9 mb 0.00 in0.0 mm 0.00 in0.0 mm 0.00 in0.0 mm
10:10 PM 64.4°F18.0°C 57.4°F14.1°C 78% 0.7 mph W1.1 kmh W 2.2 mph3.5 kmh 30.04 in1017.3 mb 0.00 in0.0 mm 0.00 in0.0 mm 0.00 in0.0 mm
10:15 PM 64.2°F17.9°C 57.9°F14.4°C 80% Calm Calm 2.2 mph3.5 kmh 30.03 in1016.9 mb 0.00 in0.0 mm 0.00 in0.0 mm 0.00 in0.0 mm
10:20 PM 63.9°F17.7°C 57.9°F14.4°C 81% Calm Calm 1.6 mph2.6 kmh 30.04 in1017.3 mb 0.00 in0.0 mm 0.00 in0.0 mm 0.00 in0.0 mm
10:25 PM 63.5°F17.5°C 57.6°F14.2°C 81% Calm Calm 1.6 mph2.6 kmh 30.04 in1017.3 mb 0.00 in0.0 mm 0.00 in0.0 mm 0.00 in0.0 mm
10:30 PM 63.1°F17.3°C 57.2°F14.0°C 81% 0.7 mph NNW1.1 kmh NNW 2.2 mph3.5 kmh 30.04 in1017.3 mb 0.00 in0.0 mm 0.00 in0.0 mm 0.00 in0.0 mm
10:35 PM 62.8°F17.1°C 57.2°F14.0°C 82% Calm Calm 2.2 mph3.5 kmh 30.03 in1016.9 mb 0.00 in0.0 mm 0.00 in0.0 mm 0.00 in0.0 mm
10:40 PM 62.6°F17.0°C 57.0°F13.9°C 82% Calm Calm 1.6 mph2.6 kmh 30.04 in1017.3 mb 0.00 in0.0 mm 0.00 in0.0 mm 0.00 in0.0 mm
10:45 PM 62.4°F16.9°C 57.5°F14.2°C 84% 1.6 mph E2.6 kmh E 2.2 mph3.5 kmh 30.04 in1017.3 mb 0.00 in0.0 mm 0.00 in0.0 mm 0.00 in0.0 mm
10:50 PM 62.2°F16.8°C 57.4°F14.1°C 84% Calm Calm 2.2 mph3.5 kmh 30.04 in1017.3 mb 0.00 in0.0 mm 0.00 in0.0 mm 0.00 in0.0 mm
10:55 PM 62.1°F16.7°C 57.5°F14.2°C 85% Calm Calm 2.2 mph3.5 kmh 30.04 in1017.3 mb 0.00 in0.0 mm 0.00 in0.0 mm 0.00 in0.0 mm
11:00 PM 62.1°F16.7°C 57.5°F14.2°C 85% Calm Calm 0.7 mph1.1 kmh 30.04 in1017.3 mb 0.00 in0.0 mm 0.00 in0.0 mm 0.00 in0.0 mm
11:05 PM 62.2°F16.8°C 57.7°F14.3°C 85% 3.1 mph SE5.0 kmh SE 3.8 mph6.1 kmh 30.04 in1017.3 mb 0.00 in0.0 mm 0.00 in0.0 mm 0.00 in0.0 mm
11:15 PM 62.4°F16.9°C 57.5°F14.2°C 84% 2.2 mph E3.5 kmh E 4.5 mph7.2 kmh 30.04 in1017.3 mb 0.00 in0.0 mm 0.00 in0.0 mm 0.00 in0.0 mm
11:20 PM 62.6°F17.0°C 57.4°F14.1°C 83% 2.2 mph E3.5 kmh E 5.4 mph8.7 kmh 30.04 in1017.3 mb 0.00 in0.0 mm 0.00 in0.0 mm 0.00 in0.0 mm
11:25 PM 62.4°F16.9°C 57.5°F14.2°C 84% 3.1 mph SE5.0 kmh SE 5.4 mph8.7 kmh 30.04 in1017.3 mb 0.00 in0.0 mm 0.00 in0.0 mm 0.00 in0.0 mm
11:30 PM 62.2°F16.8°C 57.4°F14.1°C 84% 3.1 mph SE5.0 kmh SE 5.4 mph8.7 kmh 30.04 in1017.3 mb 0.00 in0.0 mm 0.00 in0.0 mm 0.00 in0.0 mm
11:35 PM 62.1°F16.7°C 57.2°F14.0°C 84% 3.8 mph SE6.1 kmh SE 5.4 mph8.7 kmh 30.04 in1017.3 mb 0.00 in0.0 mm 0.00 in0.0 mm 0.00 in0.0 mm
11:40 PM 61.9°F16.6°C 57.0°F13.9°C 84% 1.6 mph SE2.6 kmh SE 6.0 mph9.7 kmh 30.04 in1017.3 mb 0.00 in0.0 mm 0.00 in0.0 mm 0.00 in0.0 mm
11:45 PM 61.9°F16.6°C 57.0°F13.9°C 84% 0.7 mph ESE1.1 kmh ESE 6.0 mph9.7 kmh 30.04 in1017.3 mb 0.00 in0.0 mm 0.00 in0.0 mm 0.00 in0.0 mm
11:50 PM 61.7°F16.5°C 56.8°F13.8°C 84% 1.6 mph E2.6 kmh E 3.1 mph5.0 kmh 30.04 in1017.3 mb 0.00 in0.0 mm 0.00 in0.0 mm 0.00 in0.0 mm
11:55 PM 61.7°F16.5°C 56.8°F13.8°C 84% 0.7 mph E1.1 kmh E 3.1 mph5.0 kmh 30.04 in1017.3 mb 0.00 in0.0 mm 0.00 in0.0 mm 0.00 in0.0 mm